createdAt,value
2022-08-21T00:04:22.270Z,101343.03
2022-08-21T00:10:10.535Z,101330.59
2022-08-21T00:15:57.851Z,101326.94
2022-08-21T00:21:47.575Z,101334.47
2022-08-21T00:27:37.300Z,101342.16
2022-08-21T00:33:27.215Z,101357.47
2022-08-21T00:39:15.371Z,101348.88
2022-08-21T00:45:03.338Z,101341.78
2022-08-21T00:50:56.547Z,101337.94
2022-08-21T00:56:57.166Z,101349.41
2022-08-21T01:02:46.604Z,101326.75
2022-08-21T01:08:35.905Z,101318.25
2022-08-21T01:14:26.015Z,101323.50
2022-08-21T01:20:13.260Z,101330.00
2022-08-21T01:26:00.251Z,101341.22
2022-08-21T01:31:47.386Z,101339.75
2022-08-21T01:37:34.811Z,101341.94
2022-08-21T01:43:23.819Z,101341.94
2022-08-21T01:49:23.076Z,101350.16
2022-08-21T01:55:11.724Z,101355.63
2022-08-21T02:01:02.557Z,101354.72
2022-08-21T02:06:50.080Z,101352.44
2022-08-21T02:12:36.935Z,101349.53
2022-08-21T02:18:24.215Z,101341.53
2022-08-21T02:24:12.214Z,101342.28
2022-08-21T02:29:59.082Z,101335.22
2022-08-21T02:35:51.001Z,101327.38
2022-08-21T02:41:37.984Z,101331.72
2022-08-21T02:47:24.806Z,101337.19
2022-08-21T02:53:17.450Z,101324.31
2022-08-21T02:59:38.802Z,101320.88
2022-08-21T03:05:27.253Z,101323.50
2022-08-21T03:11:17.635Z,101317.34
2022-08-21T03:17:09.281Z,101316.09
2022-08-21T03:22:57.728Z,101312.63
2022-08-21T03:28:46.832Z,101303.38
2022-08-21T03:34:33.624Z,101305.84
2022-08-21T03:40:26.364Z,101310.47
2022-08-21T03:46:13.377Z,101312.00
2022-08-21T03:52:00.870Z,101316.69
2022-08-21T03:57:47.818Z,101317.25
2022-08-21T04:03:37.693Z,101320.50
2022-08-21T04:09:25.957Z,101325.28
2022-08-21T04:15:13.618Z,101312.22
2022-08-21T04:21:01.252Z,101326.00
2022-08-21T04:26:48.599Z,101326.22
2022-08-21T04:32:36.160Z,101323.31
2022-08-21T04:38:25.137Z,101323.44
2022-08-21T04:44:12.002Z,101335.41
2022-08-21T04:49:59.003Z,101348.66
2022-08-21T04:55:46.761Z,101344.25
2022-08-21T05:01:37.057Z,101350.28
2022-08-21T05:07:42.053Z,101339.69
2022-08-21T05:13:29.814Z,101349.72
2022-08-21T05:19:16.887Z,101335.88
2022-08-21T05:25:10.107Z,101334.56
2022-08-21T05:30:58.340Z,101349.16
2022-08-21T05:36:45.872Z,101348.84
2022-08-21T05:42:33.235Z,101360.75
2022-08-21T05:48:23.460Z,101364.09
2022-08-21T05:54:10.187Z,101368.44
2022-08-21T05:59:57.106Z,101376.47
2022-08-21T06:05:44.253Z,101367.75
2022-08-21T06:11:32.318Z,101371.72
2022-08-21T06:17:19.869Z,101376.44
2022-08-21T06:23:06.692Z,101370.66
2022-08-21T06:28:54.437Z,101374.50
2022-08-21T06:34:42.550Z,101370.63
2022-08-21T06:40:32.278Z,101353.59
2022-08-21T06:46:30.309Z,101342.63
2022-08-21T06:52:20.163Z,101325.94
2022-08-21T06:58:09.554Z,101323.06
2022-08-21T07:03:59.464Z,101332.09
2022-08-21T07:09:46.262Z,101329.88
2022-08-21T07:15:34.403Z,101314.38
2022-08-21T07:21:31.778Z,101313.44
2022-08-21T07:27:23.622Z,101310.91
2022-08-21T07:39:53.170Z,101310.03
2022-08-21T07:45:55.620Z,101304.66
2022-08-21T07:51:45.922Z,101308.78
2022-08-21T07:58:10.312Z,101311.69
2022-08-21T08:04:00.475Z,101300.50
2022-08-21T08:09:47.760Z,101303.78
2022-08-21T08:15:37.685Z,101294.47
2022-08-21T08:28:28.265Z,101285.03
2022-08-21T08:35:16.298Z,101285.66
2022-08-21T08:41:57.939Z,101267.25
2022-08-21T08:48:27.969Z,101284.19
2022-08-21T08:54:55.268Z,101273.88
2022-08-21T09:01:54.366Z,101284.16
2022-08-21T09:08:25.315Z,101290.38
2022-08-21T09:14:36.158Z,101305.31
2022-08-21T09:20:57.082Z,101303.81
2022-08-21T09:27:08.442Z,101310.78
2022-08-21T09:33:00.904Z,101310.03
2022-08-21T09:38:57.706Z,101316.81
2022-08-21T09:44:59.200Z,101323.56
2022-08-21T09:51:27.535Z,101322.75
2022-08-21T09:58:08.683Z,101312.00
2022-08-21T10:04:27.121Z,101315.44
2022-08-21T10:10:44.468Z,101302.25
2022-08-21T10:33:39.649Z,101290.72
2022-08-21T10:55:28.562Z,101281.13
2022-08-21T11:01:25.414Z,101277.94
2022-08-21T11:07:20.116Z,101278.94
2022-08-21T11:13:13.604Z,101289.28
2022-08-21T11:26:20.853Z,101293.34
2022-08-21T11:32:49.574Z,101289.63
2022-08-21T11:39:02.420Z,101294.88
2022-08-21T11:45:00.727Z,101304.78
2022-08-21T11:50:49.260Z,101305.69
2022-08-21T11:56:46.604Z,101298.44
2022-08-21T12:02:37.658Z,101316.50
2022-08-21T12:08:34.016Z,101309.69
2022-08-21T12:14:20.724Z,101309.44
2022-08-21T12:20:22.836Z,101305.25
2022-08-21T12:26:36.668Z,101291.13
2022-08-21T12:32:45.746Z,101288.44
2022-08-21T12:39:20.968Z,101280.28
2022-08-21T12:45:21.654Z,101271.41
2022-08-21T12:51:22.977Z,101268.00
2022-08-21T12:57:19.345Z,101265.06
2022-08-21T13:03:07.831Z,101268.38
2022-08-21T13:09:00.017Z,101275.53
2022-08-21T13:14:49.708Z,101267.38
2022-08-21T13:20:39.345Z,101262.00
2022-08-21T13:26:26.159Z,101264.91
2022-08-21T13:32:22.421Z,101250.75
2022-08-21T13:38:09.325Z,101252.94
2022-08-21T13:44:32.757Z,101245.53
2022-08-21T13:51:24.246Z,101253.06
2022-08-21T13:57:20.345Z,101240.94
2022-08-21T14:03:34.165Z,101233.75
2022-08-21T14:09:43.876Z,101229.78
2022-08-21T14:15:37.809Z,101221.00
2022-08-21T14:21:39.645Z,101212.38
2022-08-21T14:27:26.514Z,101202.38
2022-08-21T14:33:28.564Z,101201.75
2022-08-21T14:39:19.148Z,101191.63
2022-08-21T14:45:31.639Z,101188.03
2022-08-21T14:51:18.492Z,101190.63
2022-08-21T14:57:32.319Z,101171.47
2022-08-21T15:03:22.939Z,101182.31
2022-08-21T15:09:19.107Z,101181.66
2022-08-21T15:15:07.351Z,101189.78
2022-08-21T15:20:57.623Z,101184.19
2022-08-21T15:26:46.085Z,101176.94
2022-08-21T15:32:34.762Z,101158.16
2022-08-21T15:38:24.724Z,101161.63
2022-08-21T15:44:13.881Z,101168.13
2022-08-21T15:50:23.046Z,101150.13
2022-08-21T15:56:23.116Z,101160.94
2022-08-21T16:02:22.206Z,101154.78
2022-08-21T16:08:11.335Z,101149.88
2022-08-21T16:14:00.792Z,101142.66
2022-08-21T16:19:47.883Z,101147.56
2022-08-21T16:25:41.912Z,101142.28
2022-08-21T16:31:32.396Z,101146.28
2022-08-21T16:37:23.948Z,101151.97
2022-08-21T16:43:11.535Z,101156.72
2022-08-21T16:49:01.528Z,101169.88
2022-08-21T17:01:07.796Z,101170.38
2022-08-21T17:06:57.262Z,101170.63
2022-08-21T17:12:48.570Z,101175.31
2022-08-21T17:18:42.562Z,101174.44
2022-08-21T17:24:29.931Z,101184.38
2022-08-21T17:30:58.276Z,101188.91
2022-08-21T17:53:33.436Z,101196.22
2022-08-21T17:59:28.519Z,101194.03
2022-08-21T18:05:16.787Z,101190.72
2022-08-21T18:11:06.742Z,101184.50
2022-08-21T18:16:59.493Z,101196.56
2022-08-21T18:22:48.848Z,101193.25
2022-08-21T18:28:40.528Z,101193.94
2022-08-21T18:34:34.367Z,101192.38
2022-08-21T18:40:21.731Z,101197.59
2022-08-21T18:46:09.057Z,101206.97
2022-08-21T18:51:59.229Z,101215.31
2022-08-21T18:57:47.141Z,101226.50
2022-08-21T19:03:36.535Z,101227.44
2022-08-21T19:09:24.051Z,101237.94
2022-08-21T19:15:17.684Z,101238.28
2022-08-21T19:21:07.786Z,101240.38
2022-08-21T19:33:07.155Z,101247.47
2022-08-21T19:38:54.951Z,101249.28
2022-08-21T19:44:43.233Z,101258.16
2022-08-21T19:50:31.900Z,101261.63
2022-08-21T19:56:32.801Z,101281.59
2022-08-21T20:02:47.782Z,101279.56
2022-08-21T20:08:38.130Z,101274.13
2022-08-21T20:14:39.705Z,101283.31
2022-08-21T20:20:37.463Z,101282.19
2022-08-21T20:26:25.232Z,101289.28
2022-08-21T20:32:50.584Z,101288.75
2022-08-21T20:51:53.371Z,101291.28
2022-08-21T20:58:03.127Z,101291.75
2022-08-21T21:04:01.901Z,101291.16
2022-08-21T21:09:51.900Z,101296.59
2022-08-21T21:15:42.570Z,101305.69
2022-08-21T21:21:34.915Z,101295.88
2022-08-21T21:27:49.230Z,101293.78
2022-08-21T21:33:53.127Z,101289.84
2022-08-21T21:39:51.682Z,101286.78
2022-08-21T21:45:54.891Z,101273.59
2022-08-21T21:51:51.635Z,101274.19
2022-08-21T21:57:59.111Z,101262.81
2022-08-21T22:04:21.083Z,101251.63
2022-08-21T22:10:42.913Z,101255.72
2022-08-21T22:16:39.772Z,101259.72
2022-08-21T22:22:35.307Z,101258.44
2022-08-21T22:28:27.017Z,101253.00
2022-08-21T22:34:19.262Z,101243.25
2022-08-21T22:40:07.226Z,101248.91
2022-08-21T22:46:00.815Z,101239.91
2022-08-21T22:51:49.246Z,101238.19
2022-08-21T22:57:36.221Z,101239.47
2022-08-21T23:03:34.503Z,101239.47
2022-08-21T23:09:29.425Z,101257.13
2022-08-21T23:15:17.936Z,101258.88
2022-08-21T23:21:15.783Z,101259.38
2022-08-21T23:27:13.629Z,101256.84
2022-08-21T23:33:20.345Z,101273.28
2022-08-21T23:39:25.495Z,101274.97
2022-08-21T23:45:34.801Z,101256.84
2022-08-21T23:51:35.240Z,101263.34
2022-08-21T23:57:31.406Z,101259.66
